createdAt,value
2022-09-06T00:01:43.003Z,24.67
2022-09-06T00:04:14.496Z,24.67
2022-09-06T00:06:41.921Z,24.63
2022-09-06T00:09:08.403Z,24.61
2022-09-06T00:11:34.853Z,24.56
2022-09-06T00:14:01.351Z,24.55
2022-09-06T00:16:30.479Z,24.58
2022-09-06T00:18:57.219Z,24.61
2022-09-06T00:21:26.721Z,24.62
2022-09-06T00:23:53.683Z,24.58
2022-09-06T00:26:20.820Z,24.53
2022-09-06T00:28:47.629Z,24.50
2022-09-06T00:31:16.581Z,24.48
2022-09-06T00:33:43.393Z,24.47
2022-09-06T00:36:10.639Z,24.46
2022-09-06T00:38:37.870Z,24.45
2022-09-06T00:41:04.648Z,24.44
2022-09-06T00:43:31.386Z,24.43
2022-09-06T00:45:58.128Z,24.39
2022-09-06T00:48:24.691Z,24.32
2022-09-06T00:50:57.469Z,24.27
2022-09-06T00:53:24.664Z,24.21
2022-09-06T00:55:51.336Z,24.17
2022-09-06T00:58:17.804Z,24.16
2022-09-06T01:00:47.251Z,24.13
2022-09-06T01:03:14.322Z,24.09
2022-09-06T01:06:04.867Z,24.08
2022-09-06T01:08:34.482Z,24.06
2022-09-06T01:11:00.981Z,24.01
2022-09-06T01:13:31.127Z,24.01
2022-09-06T01:15:57.682Z,24.04
2022-09-06T01:18:36.388Z,24.10
2022-09-06T01:21:02.851Z,24.11
2022-09-06T01:23:43.816Z,24.16
2022-09-06T01:26:10.314Z,24.20
2022-09-06T01:28:44.279Z,24.21
2022-09-06T01:31:11.110Z,24.15
2022-09-06T01:33:48.490Z,24.14
2022-09-06T01:36:17.131Z,24.13
2022-09-06T01:38:44.008Z,24.14
2022-09-06T01:41:10.587Z,24.17
2022-09-06T01:43:39.420Z,24.18
2022-09-06T01:46:21.424Z,24.20
2022-09-06T01:49:11.043Z,24.20
2022-09-06T01:51:55.478Z,24.18
2022-09-06T01:54:44.700Z,24.17
2022-09-06T01:57:23.498Z,24.19
2022-09-06T01:59:50.040Z,24.24
2022-09-06T02:02:19.580Z,24.20
2022-09-06T02:04:58.336Z,24.05
2022-09-06T02:07:26.474Z,23.99
2022-09-06T02:10:00.400Z,23.99
2022-09-06T02:12:29.777Z,23.99
2022-09-06T02:14:58.840Z,24.04
2022-09-06T02:17:28.099Z,24.02
2022-09-06T02:20:09.704Z,23.97
2022-09-06T02:22:39.709Z,23.90
2022-09-06T02:25:08.551Z,23.87
2022-09-06T02:27:35.644Z,23.86
2022-09-06T02:30:03.100Z,23.71
2022-09-06T02:32:30.520Z,23.61
2022-09-06T02:34:57.611Z,23.68
2022-09-06T02:37:26.119Z,23.80
2022-09-06T02:39:55.321Z,23.89
2022-09-06T02:42:22.629Z,23.90
2022-09-06T02:44:49.403Z,23.88
2022-09-06T02:47:16.744Z,23.85
2022-09-06T02:49:43.256Z,23.81
2022-09-06T02:52:09.745Z,23.80
2022-09-06T02:54:36.269Z,23.79
2022-09-06T02:57:02.822Z,23.70
2022-09-06T02:59:29.417Z,23.53
2022-09-06T03:01:56.043Z,23.42
2022-09-06T03:04:22.594Z,23.48
2022-09-06T03:06:49.155Z,23.58
2022-09-06T03:09:15.726Z,23.64
2022-09-06T03:11:42.265Z,23.66
2022-09-06T03:14:08.843Z,23.61
2022-09-06T03:16:37.014Z,23.54
2022-09-06T03:19:03.621Z,23.10
2022-09-06T03:21:30.173Z,22.93
2022-09-06T03:23:56.695Z,22.75
2022-09-06T03:26:23.320Z,22.63
2022-09-06T03:28:50.424Z,22.56
2022-09-06T03:31:17.249Z,22.55
2022-09-06T03:33:43.799Z,22.52
2022-09-06T03:36:10.404Z,22.50
2022-09-06T03:38:37.260Z,22.42
2022-09-06T03:41:03.978Z,22.27
2022-09-06T03:43:32.039Z,22.17
2022-09-06T03:45:58.663Z,22.12
2022-09-06T03:48:26.742Z,22.12
2022-09-06T03:50:54.582Z,22.19
2022-09-06T03:53:21.677Z,22.21
2022-09-06T03:55:49.590Z,22.20
2022-09-06T03:58:17.407Z,22.20
2022-09-06T04:00:44.517Z,22.15
2022-09-06T04:03:11.355Z,22.15
2022-09-06T04:05:38.014Z,22.17
2022-09-06T04:08:05.888Z,22.19
2022-09-06T04:10:32.856Z,22.14
2022-09-06T04:12:59.338Z,22.09
2022-09-06T04:15:25.886Z,22.07
2022-09-06T04:17:52.486Z,22.07
2022-09-06T04:20:19.029Z,22.09
2022-09-06T04:22:45.607Z,22.12
2022-09-06T04:25:13.767Z,22.14
2022-09-06T04:27:40.284Z,22.13
2022-09-06T04:30:07.478Z,22.16
2022-09-06T04:32:34.050Z,22.18
2022-09-06T04:35:00.547Z,22.18
2022-09-06T04:37:27.169Z,22.21
2022-09-06T04:39:54.280Z,22.23
2022-09-06T04:42:21.007Z,22.25
2022-09-06T04:44:47.582Z,22.24
2022-09-06T04:47:15.358Z,22.25
2022-09-06T04:49:42.398Z,22.25
2022-09-06T04:52:09.547Z,22.25
2022-09-06T04:54:36.112Z,22.25
2022-09-06T04:57:03.225Z,22.23
2022-09-06T04:59:29.736Z,22.22
2022-09-06T05:01:56.290Z,22.23
2022-09-06T05:04:22.982Z,22.25
2022-09-06T05:06:49.522Z,22.28
2022-09-06T05:12:56.012Z,22.25
2022-09-06T05:15:23.315Z,22.23
2022-09-06T05:17:49.890Z,22.24
2022-09-06T05:20:16.416Z,22.23
2022-09-06T05:22:43.194Z,22.27
2022-09-06T05:25:10.434Z,22.27
2022-09-06T05:27:36.995Z,22.32
2022-09-06T05:30:04.181Z,22.37
2022-09-06T05:32:30.639Z,22.34
2022-09-06T05:34:57.125Z,22.35
2022-09-06T05:37:23.755Z,22.30
2022-09-06T05:39:50.279Z,22.33
2022-09-06T05:42:19.259Z,22.35
2022-09-06T05:44:46.045Z,22.30
2022-09-06T05:47:12.590Z,22.31
2022-09-06T05:49:39.152Z,22.31
2022-09-06T05:52:05.643Z,22.38
2022-09-06T05:54:32.142Z,22.48
2022-09-06T05:56:58.679Z,22.49
2022-09-06T05:59:25.149Z,22.50
2022-09-06T06:01:52.507Z,22.46
2022-09-06T06:04:19.804Z,22.30
2022-09-06T06:06:46.921Z,22.29
2022-09-06T06:09:13.982Z,22.27
2022-09-06T06:11:41.058Z,22.17
2022-09-06T06:14:07.904Z,22.06
2022-09-06T06:16:34.532Z,22.10
2022-09-06T06:19:01.147Z,22.28
2022-09-06T06:21:28.815Z,22.42
2022-09-06T06:23:56.404Z,22.55
2022-09-06T06:26:23.474Z,22.74
2022-09-06T06:28:50.098Z,22.90
2022-09-06T06:31:16.647Z,22.98
2022-09-06T06:33:44.122Z,22.86
2022-09-06T06:36:13.644Z,22.69
2022-09-06T06:38:43.317Z,22.60
2022-09-06T06:41:12.553Z,22.58
2022-09-06T06:43:39.499Z,22.64
2022-09-06T06:46:10.328Z,22.74
2022-09-06T06:48:37.849Z,22.72
2022-09-06T06:51:04.391Z,22.99
2022-09-06T06:53:30.997Z,23.23
2022-09-06T06:55:57.517Z,23.37
2022-09-06T06:58:24.100Z,23.44
2022-09-06T07:00:50.778Z,23.49
2022-09-06T07:03:18.256Z,23.41
2022-09-06T07:08:33.573Z,23.61
2022-09-06T07:11:00.399Z,23.48
2022-09-06T07:13:27.101Z,23.46
2022-09-06T07:16:06.108Z,23.61
2022-09-06T07:18:32.886Z,23.89
2022-09-06T07:26:32.995Z,24.19
2022-09-06T07:29:00.715Z,24.37
2022-09-06T07:34:14.798Z,24.88
2022-09-06T07:36:41.350Z,25.17
2022-09-06T07:39:07.817Z,25.10
2022-09-06T07:41:34.467Z,25.16
2022-09-06T07:44:01.297Z,25.52
2022-09-06T07:46:28.083Z,25.77
2022-09-06T07:48:54.648Z,25.79
2022-09-06T07:51:21.727Z,25.84
2022-09-06T07:53:57.902Z,25.51
2022-09-06T07:56:34.073Z,25.33
2022-09-06T07:59:00.578Z,25.70
2022-09-06T08:01:28.204Z,26.19
2022-09-06T08:03:55.088Z,26.60
2022-09-06T08:06:22.808Z,26.55
2022-09-06T08:11:24.635Z,25.91
2022-09-06T08:13:52.043Z,25.91
2022-09-06T08:16:20.062Z,25.99
2022-09-06T08:18:50.465Z,26.07
2022-09-06T08:21:17.065Z,26.05
2022-09-06T08:23:48.565Z,25.87
2022-09-06T08:26:16.117Z,25.31
2022-09-06T08:28:42.843Z,24.93
2022-09-06T08:31:13.904Z,24.84
2022-09-06T08:33:40.820Z,24.86
2022-09-06T08:36:08.031Z,24.91
2022-09-06T08:38:35.296Z,24.87
2022-09-06T08:41:11.504Z,25.05
2022-09-06T08:43:38.739Z,25.22
2022-09-06T08:46:07.006Z,25.28
2022-09-06T08:48:37.010Z,25.45
2022-09-06T08:51:21.756Z,25.73
2022-09-06T08:53:48.225Z,26.20
2022-09-06T08:56:22.213Z,26.84
2022-09-06T08:58:52.026Z,28.36
2022-09-06T09:01:23.066Z,32.63
2022-09-06T09:03:50.171Z,36.92
2022-09-06T09:06:16.673Z,39.03
2022-09-06T09:09:05.439Z,40.71
2022-09-06T09:11:33.609Z,42.80
2022-09-06T09:14:12.247Z,44.04
2022-09-06T09:16:39.115Z,43.56
2022-09-06T09:19:06.449Z,44.48
2022-09-06T09:21:42.096Z,45.67
2022-09-06T09:24:10.377Z,45.22
2022-09-06T09:26:57.121Z,44.76
2022-09-06T09:29:28.054Z,44.74
2022-09-06T09:31:56.462Z,46.40
2022-09-06T09:34:29.374Z,47.33
2022-09-06T09:40:01.254Z,47.99
2022-09-06T09:42:33.143Z,48.28
2022-09-06T09:45:00.043Z,48.99
2022-09-06T09:47:47.816Z,50.33
2022-09-06T09:50:28.283Z,50.74
2022-09-06T09:52:55.121Z,49.03
2022-09-06T09:55:23.723Z,48.30
2022-09-06T09:57:51.051Z,47.22
2022-09-06T10:00:43.079Z,46.22
2022-09-06T10:03:25.045Z,47.94
2022-09-06T10:06:02.510Z,49.29
2022-09-06T10:08:31.132Z,51.38
2022-09-06T10:10:58.107Z,52.10
2022-09-06T10:13:29.720Z,52.92
2022-09-06T10:15:58.685Z,53.84
2022-09-06T10:18:28.867Z,54.23
2022-09-06T10:20:58.150Z,54.62
2022-09-06T10:26:25.834Z,54.50
2022-09-06T10:29:00.097Z,54.81
2022-09-06T10:31:36.284Z,55.37
2022-09-06T10:34:03.033Z,55.37
2022-09-06T10:36:35.181Z,55.47
2022-09-06T10:39:15.045Z,52.50
2022-09-06T10:41:41.622Z,52.41
2022-09-06T10:44:17.142Z,53.68
2022-09-06T10:46:44.817Z,54.82
2022-09-06T10:49:14.631Z,55.17
2022-09-06T10:51:50.191Z,55.78
2022-09-06T10:54:19.648Z,54.89
2022-09-06T10:56:55.852Z,55.24
2022-09-06T11:02:08.746Z,56.17
2022-09-06T11:07:26.871Z,57.17
2022-09-06T11:09:57.620Z,56.53
2022-09-06T11:12:27.222Z,56.71
2022-09-06T11:14:54.233Z,54.82
2022-09-06T11:17:30.972Z,54.10
2022-09-06T11:20:13.152Z,54.06
2022-09-06T11:22:52.934Z,54.48
2022-09-06T11:25:38.315Z,53.31
2022-09-06T11:28:08.757Z,53.19
2022-09-06T11:30:35.424Z,53.40
2022-09-06T11:33:13.529Z,52.50
2022-09-06T11:35:41.145Z,52.16
2022-09-06T11:38:17.031Z,53.28
2022-09-06T11:40:45.360Z,53.98
2022-09-06T11:43:15.721Z,54.52
2022-09-06T11:45:42.335Z,54.89
2022-09-06T11:48:24.146Z,54.35
2022-09-06T11:50:53.719Z,53.92
2022-09-06T11:53:23.983Z,53.17
2022-09-06T11:56:09.369Z,51.49
2022-09-06T11:58:41.946Z,51.01
2022-09-06T12:01:28.703Z,50.08
2022-09-06T12:04:06.940Z,50.39
2022-09-06T12:06:41.333Z,49.50
2022-09-06T12:09:26.772Z,48.83
2022-09-06T12:11:53.530Z,47.52
2022-09-06T12:14:34.481Z,47.22
2022-09-06T12:17:01.402Z,47.69
2022-09-06T12:19:49.578Z,48.56
2022-09-06T12:22:37.426Z,47.40
2022-09-06T12:25:22.481Z,44.69
2022-09-06T12:27:56.268Z,42.27
2022-09-06T12:30:37.375Z,41.04
2022-09-06T12:33:22.865Z,39.74
2022-09-06T12:35:57.433Z,38.90
2022-09-06T12:38:25.146Z,38.27
2022-09-06T12:40:56.415Z,37.64
2022-09-06T12:43:22.972Z,37.04
2022-09-06T12:45:51.326Z,36.06
2022-09-06T12:48:31.248Z,35.55
2022-09-06T12:51:04.923Z,35.47
2022-09-06T12:53:32.156Z,35.10
2022-09-06T12:56:03.407Z,34.91
2022-09-06T12:58:30.173Z,34.70
2022-09-06T13:01:03.650Z,34.41
2022-09-06T13:03:35.179Z,34.39
2022-09-06T13:06:04.375Z,34.17
2022-09-06T13:08:36.982Z,33.96
2022-09-06T13:11:05.186Z,33.88
2022-09-06T13:13:31.765Z,33.99
2022-09-06T13:15:58.417Z,33.86
2022-09-06T13:18:31.079Z,33.61
2022-09-06T13:21:01.765Z,33.65
2022-09-06T13:23:28.580Z,33.73
2022-09-06T13:25:56.014Z,33.75
2022-09-06T13:28:28.422Z,33.88
2022-09-06T13:31:14.363Z,33.90
2022-09-06T13:33:41.900Z,33.86
2022-09-06T13:36:18.364Z,33.79
2022-09-06T13:38:45.866Z,33.76
2022-09-06T13:41:21.342Z,33.62
2022-09-06T13:43:48.594Z,33.49
2022-09-06T13:46:15.423Z,33.45
2022-09-06T13:48:44.686Z,33.38
2022-09-06T13:51:11.442Z,33.20
2022-09-06T13:53:39.104Z,33.16
2022-09-06T13:56:08.798Z,33.09
2022-09-06T13:58:36.049Z,32.95
2022-09-06T14:01:05.134Z,32.76
2022-09-06T14:03:32.506Z,32.74
2022-09-06T14:06:00.279Z,32.74
2022-09-06T14:08:43.411Z,32.70
2022-09-06T14:11:14.900Z,32.64
2022-09-06T14:13:41.778Z,32.58
2022-09-06T14:16:08.473Z,32.51
2022-09-06T14:18:35.050Z,32.49
2022-09-06T14:21:01.988Z,32.42
2022-09-06T14:23:28.591Z,32.32
2022-09-06T14:25:55.682Z,32.25
2022-09-06T14:28:22.387Z,32.19
2022-09-06T14:30:48.916Z,32.15
2022-09-06T14:33:15.452Z,32.14
2022-09-06T14:35:42.109Z,32.07
2022-09-06T14:38:08.887Z,31.97
2022-09-06T14:40:36.778Z,31.86
2022-09-06T14:43:04.089Z,31.80
2022-09-06T14:45:30.820Z,31.74
2022-09-06T14:47:57.378Z,31.66
2022-09-06T14:50:24.017Z,31.60
2022-09-06T14:52:50.612Z,31.57
2022-09-06T14:55:17.213Z,31.40
2022-09-06T14:57:43.806Z,31.23
2022-09-06T15:00:11.240Z,31.23
2022-09-06T15:02:38.136Z,31.23
2022-09-06T15:05:05.935Z,31.22
2022-09-06T15:07:32.687Z,31.20
2022-09-06T15:09:59.265Z,31.15
2022-09-06T15:12:25.935Z,31.11
2022-09-06T15:14:52.505Z,31.08
2022-09-06T15:17:19.061Z,31.05
2022-09-06T15:19:45.846Z,30.99
2022-09-06T15:22:12.478Z,30.89
2022-09-06T15:24:40.348Z,30.81
2022-09-06T15:27:06.973Z,30.73
2022-09-06T15:29:33.630Z,30.64
2022-09-06T15:32:00.461Z,30.53
2022-09-06T15:34:27.053Z,30.43
2022-09-06T15:36:53.679Z,30.35
2022-09-06T15:39:20.666Z,30.23
2022-09-06T15:41:49.974Z,30.15
2022-09-06T15:44:19.792Z,30.12
2022-09-06T15:46:46.428Z,30.15
2022-09-06T15:49:15.083Z,30.05
2022-09-06T15:51:42.184Z,29.99
2022-09-06T15:54:09.574Z,29.97
2022-09-06T15:56:36.653Z,29.92
2022-09-06T15:59:03.476Z,29.86
2022-09-06T16:01:30.136Z,29.87
2022-09-06T16:04:03.692Z,29.84
2022-09-06T16:06:31.866Z,29.75
2022-09-06T16:08:59.894Z,29.66
2022-09-06T16:11:27.556Z,29.66
2022-09-06T16:13:54.514Z,29.66
2022-09-06T16:16:22.597Z,29.66
2022-09-06T16:18:49.485Z,29.58
2022-09-06T16:21:21.624Z,29.52
2022-09-06T16:23:53.553Z,29.45
2022-09-06T16:26:21.842Z,29.42
2022-09-06T16:28:50.069Z,29.36
2022-09-06T16:31:17.263Z,29.29
2022-09-06T16:33:45.489Z,29.27
2022-09-06T16:36:12.964Z,29.26
2022-09-06T16:38:39.811Z,29.29
2022-09-06T16:41:14.588Z,29.35
2022-09-06T16:43:41.713Z,29.36
2022-09-06T16:46:08.629Z,29.35
2022-09-06T16:48:35.397Z,29.39
2022-09-06T16:51:28.429Z,29.44
2022-09-06T16:53:55.251Z,29.46
2022-09-06T16:56:23.436Z,29.46
2022-09-06T16:58:54.391Z,29.48
2022-09-06T17:01:21.189Z,29.45
2022-09-06T17:03:48.122Z,29.43
2022-09-06T17:06:14.921Z,29.40
2022-09-06T17:08:41.719Z,29.34
2022-09-06T17:11:09.728Z,29.29
2022-09-06T17:13:36.848Z,29.19
2022-09-06T17:16:22.498Z,29.10
2022-09-06T17:18:49.892Z,28.86
2022-09-06T17:21:16.478Z,28.63
2022-09-06T17:23:43.570Z,28.45
2022-09-06T17:26:10.509Z,28.31
2022-09-06T17:28:38.831Z,28.16
2022-09-06T17:31:05.931Z,28.10
2022-09-06T17:33:33.482Z,28.07
2022-09-06T17:36:13.321Z,28.04
2022-09-06T17:38:40.539Z,28.01
2022-09-06T17:41:08.251Z,27.90
2022-09-06T17:43:37.821Z,27.83
2022-09-06T17:46:04.838Z,27.76
2022-09-06T17:48:31.639Z,27.69
2022-09-06T17:51:04.510Z,27.64
2022-09-06T17:53:31.899Z,27.56
2022-09-06T17:55:58.495Z,27.49
2022-09-06T17:58:25.172Z,27.42
2022-09-06T18:00:53.015Z,27.27
2022-09-06T18:03:19.658Z,27.14
2022-09-06T18:05:46.187Z,26.99
2022-09-06T18:08:12.962Z,26.89
2022-09-06T18:10:39.884Z,26.86
2022-09-06T18:13:06.502Z,26.84
2022-09-06T18:15:38.248Z,26.79
2022-09-06T18:18:04.929Z,26.80
2022-09-06T18:20:31.496Z,26.76
2022-09-06T18:22:58.377Z,26.60
2022-09-06T18:25:25.415Z,26.49
2022-09-06T18:27:52.296Z,26.41
2022-09-06T18:30:18.943Z,26.35
2022-09-06T18:32:45.578Z,26.34
2022-09-06T18:35:14.521Z,26.35
2022-09-06T18:37:41.100Z,26.41
2022-09-06T18:40:08.036Z,26.40
2022-09-06T18:42:34.779Z,26.37
2022-09-06T18:45:01.535Z,26.30
2022-09-06T18:47:28.190Z,26.12
2022-09-06T18:49:54.796Z,25.94
2022-09-06T18:52:21.353Z,25.84
2022-09-06T18:54:49.479Z,25.72
2022-09-06T18:57:17.191Z,25.66
2022-09-06T18:59:44.657Z,25.64
2022-09-06T19:02:11.570Z,25.64
2022-09-06T19:04:38.408Z,25.69
2022-09-06T19:07:05.109Z,25.71
2022-09-06T19:09:31.743Z,25.72
2022-09-06T19:11:58.265Z,25.75
2022-09-06T19:14:25.357Z,25.78
2022-09-06T19:16:54.848Z,25.79
2022-09-06T19:19:22.704Z,25.77
2022-09-06T19:21:49.644Z,25.73
2022-09-06T19:24:16.500Z,25.69
2022-09-06T19:26:45.222Z,25.62
2022-09-06T19:29:16.077Z,25.58
2022-09-06T19:31:43.232Z,25.59
2022-09-06T19:34:13.553Z,25.58
2022-09-06T19:36:40.217Z,25.55
2022-09-06T19:39:08.630Z,25.50
2022-09-06T19:41:39.360Z,25.48
2022-09-06T19:44:08.667Z,25.47
2022-09-06T19:46:35.649Z,25.43
2022-09-06T19:49:08.243Z,25.40
2022-09-06T19:51:36.361Z,25.37
2022-09-06T19:54:03.573Z,25.33
2022-09-06T19:56:35.854Z,25.28
2022-09-06T19:59:07.188Z,25.25
2022-09-06T20:01:35.004Z,25.22
2022-09-06T20:04:02.963Z,25.21
2022-09-06T20:06:30.413Z,25.13
2022-09-06T20:08:57.981Z,25.10
2022-09-06T20:11:25.990Z,25.06
2022-09-06T20:13:52.919Z,25.03
2022-09-06T20:16:20.959Z,25.02
2022-09-06T20:18:48.423Z,25.01
2022-09-06T20:21:15.131Z,24.97
2022-09-06T20:23:42.054Z,24.97
2022-09-06T20:26:10.188Z,24.93
2022-09-06T20:28:37.184Z,24.89
2022-09-06T20:31:08.532Z,24.89
2022-09-06T20:33:35.882Z,24.88
2022-09-06T20:36:03.965Z,24.86
2022-09-06T20:38:35.261Z,24.83
2022-09-06T20:41:09.240Z,24.82
2022-09-06T20:43:36.864Z,24.81
2022-09-06T20:46:04.383Z,24.82
2022-09-06T20:48:32.703Z,24.82
2022-09-06T20:51:00.379Z,24.81
2022-09-06T20:53:27.222Z,24.83
2022-09-06T20:55:57.885Z,24.86
2022-09-06T20:58:24.693Z,24.87
2022-09-06T21:00:52.181Z,24.88
2022-09-06T21:03:19.003Z,24.83
2022-09-06T21:05:45.671Z,24.78
2022-09-06T21:08:12.331Z,24.73
2022-09-06T21:10:38.871Z,24.70
2022-09-06T21:13:05.456Z,24.69
2022-09-06T21:15:36.542Z,24.66
2022-09-06T21:18:04.657Z,24.60
2022-09-06T21:20:31.304Z,24.53
2022-09-06T21:22:57.875Z,24.49
2022-09-06T21:25:24.538Z,24.51
2022-09-06T21:27:55.564Z,24.55
2022-09-06T21:30:22.407Z,24.55
2022-09-06T21:32:49.113Z,24.58
2022-09-06T21:35:15.855Z,24.60
2022-09-06T21:37:42.425Z,24.61
2022-09-06T21:40:09.374Z,24.61
2022-09-06T21:42:36.029Z,24.58
2022-09-06T21:45:02.796Z,24.54
2022-09-06T21:47:31.176Z,24.47
2022-09-06T21:49:57.835Z,24.44
2022-09-06T21:52:24.431Z,24.44
2022-09-06T21:54:51.017Z,24.44
2022-09-06T21:57:18.032Z,24.43
2022-09-06T21:59:44.845Z,24.40
2022-09-06T22:02:11.842Z,24.39
2022-09-06T22:04:38.534Z,24.36
2022-09-06T22:07:05.122Z,24.34
2022-09-06T22:09:32.001Z,24.31
2022-09-06T22:11:58.899Z,24.29
2022-09-06T22:14:25.453Z,24.24
2022-09-06T22:16:53.459Z,24.18
2022-09-06T22:19:22.524Z,24.15
2022-09-06T22:21:51.931Z,24.13
2022-09-06T22:24:18.634Z,24.11
2022-09-06T22:26:45.548Z,24.09
2022-09-06T22:29:13.557Z,24.10
2022-09-06T22:31:43.722Z,24.09
2022-09-06T22:34:10.653Z,24.11
2022-09-06T22:36:37.266Z,24.14
2022-09-06T22:39:04.020Z,24.08
2022-09-06T22:41:31.446Z,24.04
2022-09-06T22:44:01.596Z,24.01
2022-09-06T22:46:28.668Z,23.96
2022-09-06T22:48:55.548Z,23.93
2022-09-06T22:51:22.070Z,23.92
2022-09-06T22:53:48.674Z,23.86
2022-09-06T22:56:15.336Z,23.86
2022-09-06T22:58:41.946Z,23.91
2022-09-06T23:01:09.584Z,24.06
2022-09-06T23:03:36.849Z,24.11
2022-09-06T23:06:03.945Z,24.15
2022-09-06T23:08:30.909Z,24.19
2022-09-06T23:10:57.569Z,24.19
2022-09-06T23:13:24.169Z,24.16
2022-09-06T23:15:50.775Z,24.11
2022-09-06T23:18:17.379Z,24.03
2022-09-06T23:20:44.033Z,23.85
2022-09-06T23:23:10.700Z,23.86
2022-09-06T23:25:38.731Z,23.86
2022-09-06T23:28:05.456Z,23.87
2022-09-06T23:30:32.096Z,23.90
2022-09-06T23:32:58.645Z,23.85
2022-09-06T23:35:25.155Z,23.76
2022-09-06T23:37:52.301Z,23.65
2022-09-06T23:40:18.974Z,23.56
2022-09-06T23:42:45.687Z,23.53
2022-09-06T23:45:12.208Z,23.54
2022-09-06T23:47:38.841Z,23.62
2022-09-06T23:50:06.765Z,23.71
2022-09-06T23:52:33.325Z,23.82
2022-09-06T23:54:59.865Z,23.93
2022-09-06T23:57:26.422Z,23.97
2022-09-06T23:59:52.890Z,23.96
